Time;durP1;ratioP1;P1;durP2;ratioP2;P2;SDS_P1;SDS_P2;PMS_P1;PMS_P2;Temp;Humidity;BMP_temperature;BMP_pressure;BME280_temperature;BME280_humidity;BME280_pressure;Samples;Min_cycle;Max_cycle;Signal;HPM_P1;HPM_P2
2024/02/17 00:00:01;;;;;;;;;;;9.60;100.00;;;;;;5008459;28;19925;-71
2024/02/17 00:02:28;;;;;;;;;;;9.50;100.00;;;;;;5018354;28;19969;-72
2024/02/17 00:05:02;;;;;;;;;;;9.60;100.00;;;;;;5041475;28;19929;-72
2024/02/17 00:07:29;;;;;;;;;;;9.60;100.00;;;;;;5013951;28;20374;-71
2024/02/17 00:09:56;;;;;;;;;;;9.50;100.00;;;;;;5007366;28;19929;-71
2024/02/17 00:12:23;;;;;;;;;;;9.50;100.00;;;;;;5012717;28;20344;-72
2024/02/17 00:14:51;;;;;;;;;;;9.60;100.00;;;;;;5023516;28;19929;-71
2024/02/17 00:17:19;;;;;;;;;;;9.60;100.00;;;;;;5010470;28;19929;-71
2024/02/17 00:19:48;;;;;;;;;;;9.60;100.00;;;;;;5027714;28;19929;-71
2024/02/17 00:22:16;;;;;;;;;;;9.60;100.00;;;;;;5024557;28;20288;-72
2024/02/17 00:24:43;;;;;;;;;;;9.60;100.00;;;;;;5024480;28;20358;-71
2024/02/17 00:27:11;;;;;;;;;;;9.60;100.00;;;;;;5024142;28;19934;-71
2024/02/17 00:29:38;;;;;;;;;;;9.60;100.00;;;;;;5005510;28;19933;-71
2024/02/17 00:32:06;;;;;;;;;;;9.60;100.00;;;;;;5006643;28;20009;-72
2024/02/17 00:34:35;;;;;;;;;;;9.60;100.00;;;;;;5023839;28;20007;-71
2024/02/17 00:37:03;;;;;;;;;;;9.60;100.00;;;;;;4997496;28;20357;-71
2024/02/17 00:39:30;;;;;;;;;;;9.60;100.00;;;;;;5024672;28;19936;-72
2024/02/17 00:41:57;;;;;;;;;;;9.60;100.00;;;;;;5026067;28;19967;-71
2024/02/17 00:44:24;;;;;;;;;;;9.70;100.00;;;;;;4996535;28;19934;-70
2024/02/17 00:46:51;;;;;;;;;;;9.70;100.00;;;;;;5009293;28;20375;-71
2024/02/17 00:49:18;;;;;;;;;;;9.70;100.00;;;;;;5007641;28;19940;-70
2024/02/17 00:51:45;;;;;;;;;;;9.70;100.00;;;;;;5019747;28;19929;-71
2024/02/17 00:54:12;;;;;;;;;;;9.70;100.00;;;;;;4998725;28;19929;-70
2024/02/17 00:56:39;;;;;;;;;;;9.70;100.00;;;;;;5025802;28;19932;-71
2024/02/17 00:59:06;;;;;;;;;;;9.70;100.00;;;;;;4996921;28;19926;-70
2024/02/17 01:01:33;;;;;;;;;;;9.70;100.00;;;;;;5008892;28;20394;-71
2024/02/17 01:04:06;;;;;;;;;;;9.70;100.00;;;;;;5019518;28;19925;-71
2024/02/17 01:06:34;;;;;;;;;;;9.70;100.00;;;;;;5004104;28;19988;-70
2024/02/17 01:09:01;;;;;;;;;;;9.70;100.00;;;;;;4995924;28;20303;-70
2024/02/17 01:11:29;;;;;;;;;;;9.80;100.00;;;;;;5041593;28;19935;-71
2024/02/17 01:13:56;;;;;;;;;;;9.80;100.00;;;;;;5017195;28;19995;-70
2024/02/17 01:16:25;;;;;;;;;;;9.80;100.00;;;;;;5021196;28;20040;-70
2024/02/17 01:18:52;;;;;;;;;;;9.80;100.00;;;;;;5004282;28;20758;-70
2024/02/17 01:21:21;;;;;;;;;;;9.80;100.00;;;;;;5006052;28;19929;-71
2024/02/17 01:23:49;;;;;;;;;;;9.80;100.00;;;;;;5031774;28;20021;-71
2024/02/17 01:26:17;;;;;;;;;;;9.80;100.00;;;;;;4996877;28;19929;-71
2024/02/17 01:28:44;;;;;;;;;;;9.80;100.00;;;;;;5020198;28;20692;-71
2024/02/17 01:31:11;;;;;;;;;;;9.80;100.00;;;;;;4980054;28;19937;-71
2024/02/17 01:33:38;;;;;;;;;;;9.90;100.00;;;;;;5013798;28;20007;-71
2024/02/17 01:36:12;;;;;;;;;;;9.90;100.00;;;;;;5006133;28;19925;-71
2024/02/17 01:38:39;;;;;;;;;;;9.90;100.00;;;;;;5024948;28;19940;-71
2024/02/17 01:41:05;;;;;;;;;;;9.90;100.00;;;;;;5006853;28;19925;-71
2024/02/17 01:43:34;;;;;;;;;;;9.90;100.00;;;;;;4990068;28;20007;-71
2024/02/17 01:46:01;;;;;;;;;;;9.90;100.00;;;;;;4995894;28;19993;-72
2024/02/17 01:48:28;;;;;;;;;;;9.90;100.00;;;;;;5006902;28;19952;-72
2024/02/17 01:50:56;;;;;;;;;;;9.90;100.00;;;;;;5022498;28;20401;-72
2024/02/17 01:53:25;;;;;;;;;;;9.90;100.00;;;;;;5005349;28;20553;-72
2024/02/17 01:55:52;;;;;;;;;;;9.90;100.00;;;;;;5010453;28;20008;-71
2024/02/17 01:58:19;;;;;;;;;;;9.90;100.00;;;;;;5014115;28;20782;-71
2024/02/17 02:00:46;;;;;;;;;;;9.90;100.00;;;;;;5019711;28;19979;-72
2024/02/17 02:03:13;;;;;;;;;;;9.90;100.00;;;;;;5015407;28;20370;-72
2024/02/17 02:05:40;;;;;;;;;;;9.90;100.00;;;;;;4997807;28;19929;-72
2024/02/17 02:08:07;;;;;;;;;;;9.90;100.00;;;;;;5009116;28;19936;-72
2024/02/17 02:10:34;;;;;;;;;;;9.80;100.00;;;;;;4993425;28;20345;-72
2024/02/17 02:13:03;;;;;;;;;;;9.80;100.00;;;;;;5020382;28;19929;-71
2024/02/17 02:15:30;;;;;;;;;;;9.80;100.00;;;;;;5024130;28;19929;-72
2024/02/17 02:18:11;;;;;;;;;;;9.80;100.00;;;;;;5023934;28;19933;-71
2024/02/17 02:20:38;;;;;;;;;;;9.80;100.00;;;;;;5015790;28;19976;-72
2024/02/17 02:23:05;;;;;;;;;;;9.80;100.00;;;;;;5025449;28;20394;-71
2024/02/17 02:25:32;;;;;;;;;;;9.70;100.00;;;;;;5023706;28;20357;-71
2024/02/17 02:27:59;;;;;;;;;;;9.70;100.00;;;;;;5004352;28;19983;-72
2024/02/17 02:30:25;;;;;;;;;;;9.70;100.00;;;;;;4999073;28;19929;-72
2024/02/17 02:32:57;;;;;;;;;;;9.70;100.00;;;;;;5004191;28;19952;-72
2024/02/17 02:35:25;;;;;;;;;;;9.60;100.00;;;;;;5019333;28;19929;-71
2024/02/17 02:37:52;;;;;;;;;;;9.60;100.00;;;;;;5006095;28;20440;-72
2024/02/17 02:40:18;;;;;;;;;;;9.60;100.00;;;;;;5005285;28;19929;-72
2024/02/17 02:42:45;;;;;;;;;;;9.60;100.00;;;;;;5009341;28;19983;-71
2024/02/17 02:45:12;;;;;;;;;;;9.50;100.00;;;;;;5010797;28;19933;-71
2024/02/17 02:47:40;;;;;;;;;;;9.50;100.00;;;;;;5003136;28;19929;-71
2024/02/17 02:50:08;;;;;;;;;;;9.50;100.00;;;;;;5018960;28;19933;-71
2024/02/17 02:52:37;;;;;;;;;;;9.50;100.00;;;;;;5004880;28;19929;-71
2024/02/17 02:55:04;;;;;;;;;;;9.50;100.00;;;;;;5012069;28;20055;-71
2024/02/17 02:57:31;;;;;;;;;;;9.50;100.00;;;;;;5023187;28;19983;-71
2024/02/17 02:59:59;;;;;;;;;;;9.40;100.00;;;;;;5005948;28;20466;-71
2024/02/17 03:02:26;;;;;;;;;;;9.30;100.00;;;;;;5020825;28;19957;-71
2024/02/17 03:04:54;;;;;;;;;;;9.20;100.00;;;;;;5009905;28;19929;-71
2024/02/17 03:07:21;;;;;;;;;;;9.10;100.00;;;;;;5018271;28;19972;-71
2024/02/17 03:09:48;;;;;;;;;;;9.00;100.00;;;;;;5019465;28;19933;-71
2024/02/17 03:12:15;;;;;;;;;;;8.90;100.00;;;;;;5019690;28;20012;-71
2024/02/17 03:14:42;;;;;;;;;;;8.80;100.00;;;;;;5006496;28;19929;-70
2024/02/17 03:17:09;;;;;;;;;;;8.80;100.00;;;;;;5012948;28;20054;-71
2024/02/17 03:19:36;;;;;;;;;;;8.80;100.00;;;;;;5027033;28;19968;-71
2024/02/17 03:22:03;;;;;;;;;;;8.70;100.00;;;;;;5022392;28;19929;-71
2024/02/17 03:24:30;;;;;;;;;;;8.70;100.00;;;;;;4989679;28;19929;-71
2024/02/17 03:26:57;;;;;;;;;;;8.70;100.00;;;;;;5010469;28;19930;-71
2024/02/17 03:29:27;;;;;;;;;;;8.70;100.00;;;;;;5021448;28;19933;-71
2024/02/17 03:31:53;;;;;;;;;;;8.70;100.00;;;;;;5007391;28;19983;-71
2024/02/17 03:34:20;;;;;;;;;;;8.70;100.00;;;;;;5018828;28;19964;-71
2024/02/17 03:36:47;;;;;;;;;;;8.70;100.00;;;;;;5014773;28;19929;-71
2024/02/17 03:39:18;;;;;;;;;;;8.70;100.00;;;;;;5042802;28;20476;-71
2024/02/17 03:41:46;;;;;;;;;;;8.70;100.00;;;;;;5026774;28;20003;-71
2024/02/17 03:44:13;;;;;;;;;;;8.70;100.00;;;;;;5016420;28;20393;-71
2024/02/17 03:46:40;;;;;;;;;;;8.70;100.00;;;;;;5020208;28;19929;-75
2024/02/17 03:49:07;;;;;;;;;;;8.70;100.00;;;;;;5024939;28;19929;-75
2024/02/17 03:51:34;;;;;;;;;;;8.70;100.00;;;;;;5024247;28;20060;-75
2024/02/17 03:54:01;;;;;;;;;;;8.70;100.00;;;;;;5026448;28;19956;-75
2024/02/17 03:56:27;;;;;;;;;;;8.70;100.00;;;;;;5007747;28;19937;-74
2024/02/17 03:58:54;;;;;;;;;;;8.60;100.00;;;;;;5009006;28;20777;-74
2024/02/17 04:01:21;;;;;;;;;;;8.60;100.00;;;;;;5012034;28;19983;-75
2024/02/17 04:03:48;;;;;;;;;;;8.50;100.00;;;;;;5007005;28;19936;-75
2024/02/17 04:06:14;;;;;;;;;;;8.50;100.00;;;;;;4988836;28;19930;-75
2024/02/17 04:08:42;;;;;;;;;;;8.40;100.00;;;;;;5007994;28;19983;-75
2024/02/17 04:11:09;;;;;;;;;;;8.40;100.00;;;;;;5008242;28;20020;-75
2024/02/17 04:13:36;;;;;;;;;;;8.30;100.00;;;;;;5007383;28;19935;-75
2024/02/17 04:16:03;;;;;;;;;;;8.20;100.00;;;;;;5008006;28;19972;-75
2024/02/17 04:18:29;;;;;;;;;;;8.20;100.00;;;;;;5004585;28;19933;-75
2024/02/17 04:20:56;;;;;;;;;;;8.10;100.00;;;;;;5005546;28;20629;-75
2024/02/17 04:23:23;;;;;;;;;;;8.00;100.00;;;;;;5019741;28;19954;-75
2024/02/17 04:25:50;;;;;;;;;;;8.10;100.00;;;;;;5008279;28;20602;-75
2024/02/17 04:28:19;;;;;;;;;;;8.00;100.00;;;;;;5026717;28;19931;-75
2024/02/17 04:30:45;;;;;;;;;;;8.00;100.00;;;;;;5019157;28;19933;-75
2024/02/17 04:33:12;;;;;;;;;;;8.00;100.00;;;;;;5009457;28;19936;-75
2024/02/17 04:35:39;;;;;;;;;;;8.00;100.00;;;;;;5026515;28;19940;-75
2024/02/17 04:38:06;;;;;;;;;;;8.00;100.00;;;;;;5026558;28;20688;-75
2024/02/17 04:40:32;;;;;;;;;;;8.00;100.00;;;;;;5023779;28;19930;-75
2024/02/17 04:42:59;;;;;;;;;;;8.00;100.00;;;;;;5016821;28;19933;-75
2024/02/17 04:45:26;;;;;;;;;;;7.90;100.00;;;;;;5000328;28;19930;-75
2024/02/17 04:47:53;;;;;;;;;;;8.00;100.00;;;;;;5020387;28;20024;-76
2024/02/17 04:50:20;;;;;;;;;;;7.90;100.00;;;;;;5025535;28;19935;-74
2024/02/17 04:52:47;;;;;;;;;;;7.90;100.00;;;;;;5006385;28;20353;-75
2024/02/17 04:55:14;;;;;;;;;;;7.90;100.00;;;;;;5031317;28;20385;-75
2024/02/17 04:57:40;;;;;;;;;;;7.80;100.00;;;;;;5023068;28;20031;-75
2024/02/17 05:00:08;;;;;;;;;;;7.70;100.00;;;;;;5007982;28;20007;-75
2024/02/17 05:02:36;;;;;;;;;;;7.60;100.00;;;;;;5007359;28;19929;-75
2024/02/17 05:05:03;;;;;;;;;;;7.50;100.00;;;;;;4989885;28;20011;-75
2024/02/17 05:07:30;;;;;;;;;;;7.40;100.00;;;;;;5020920;28;20023;-75
2024/02/17 05:09:57;;;;;;;;;;;7.30;100.00;;;;;;5016352;28;20674;-75
2024/02/17 05:12:24;;;;;;;;;;;7.30;100.00;;;;;;5022640;28;19975;-75
2024/02/17 05:14:51;;;;;;;;;;;7.20;100.00;;;;;;5007502;28;19934;-75
2024/02/17 05:17:17;;;;;;;;;;;7.10;100.00;;;;;;5018891;28;19925;-75
2024/02/17 05:19:44;;;;;;;;;;;7.00;100.00;;;;;;5018760;28;20072;-75
2024/02/17 05:22:11;;;;;;;;;;;7.00;100.00;;;;;;5008867;28;19980;-75
2024/02/17 05:24:41;;;;;;;;;;;7.00;100.00;;;;;;5015943;28;19929;-75
2024/02/17 05:27:07;;;;;;;;;;;6.90;100.00;;;;;;4991695;28;20044;-75
2024/02/17 05:29:34;;;;;;;;;;;6.90;100.00;;;;;;4994659;28;19937;-75
2024/02/17 05:32:01;;;;;;;;;;;6.80;100.00;;;;;;5007879;28;20371;-75
2024/02/17 05:34:28;;;;;;;;;;;6.80;100.00;;;;;;4989820;28;19983;-75
2024/02/17 05:36:56;;;;;;;;;;;6.80;100.00;;;;;;5009144;28;19930;-75
2024/02/17 05:39:23;;;;;;;;;;;6.70;100.00;;;;;;5019963;28;20013;-75
2024/02/17 05:41:50;;;;;;;;;;;6.70;100.00;;;;;;5008124;28;19943;-75
2024/02/17 05:44:17;;;;;;;;;;;6.70;100.00;;;;;;5026777;28;19929;-75
2024/02/17 05:46:43;;;;;;;;;;;6.70;100.00;;;;;;5026409;28;19932;-75
2024/02/17 05:49:10;;;;;;;;;;;6.60;100.00;;;;;;5004554;28;19981;-75
2024/02/17 05:51:37;;;;;;;;;;;6.60;100.00;;;;;;5013887;28;19975;-75
2024/02/17 05:54:04;;;;;;;;;;;6.60;100.00;;;;;;5025572;28;20377;-74
2024/02/17 05:56:31;;;;;;;;;;;6.60;100.00;;;;;;5013367;28;20319;-74
2024/02/17 05:58:58;;;;;;;;;;;6.60;100.00;;;;;;5024474;28;19987;-74
2024/02/17 06:01:24;;;;;;;;;;;6.60;100.00;;;;;;4993507;28;19968;-74
2024/02/17 06:03:51;;;;;;;;;;;6.50;100.00;;;;;;5014850;28;19933;-74
2024/02/17 06:06:18;;;;;;;;;;;6.40;100.00;;;;;;4999679;28;20002;-74
2024/02/17 06:08:45;;;;;;;;;;;6.40;100.00;;;;;;5015425;28;20023;-74
2024/02/17 06:11:12;;;;;;;;;;;6.40;100.00;;;;;;5004734;28;19929;-74
2024/02/17 06:13:38;;;;;;;;;;;6.30;100.00;;;;;;5016096;28;19940;-74
2024/02/17 06:16:06;;;;;;;;;;;6.20;100.00;;;;;;5026036;28;19979;-74
2024/02/17 06:21:20;;;;;;;;;;;6.20;100.00;;;;;;5024763;28;20015;-74
2024/02/17 06:23:53;;;;;;;;;;;6.20;100.00;;;;;;5008874;28;19936;-74
2024/02/17 06:26:20;;;;;;;;;;;6.20;100.00;;;;;;5041957;28;20267;-74
2024/02/17 06:28:47;;;;;;;;;;;6.10;100.00;;;;;;5021764;28;20085;-73
2024/02/17 06:31:14;;;;;;;;;;;6.10;100.00;;;;;;5003967;28;19951;-73
2024/02/17 06:33:40;;;;;;;;;;;6.00;100.00;;;;;;5006749;28;19980;-74
2024/02/17 06:36:07;;;;;;;;;;;6.10;100.00;;;;;;5002226;28;19933;-73
2024/02/17 06:38:34;;;;;;;;;;;6.10;100.00;;;;;;5009006;28;19938;-73
2024/02/17 06:41:01;;;;;;;;;;;6.00;100.00;;;;;;5004305;28;19971;-73
2024/02/17 06:43:30;;;;;;;;;;;6.00;100.00;;;;;;4994360;28;19976;-73
2024/02/17 06:45:58;;;;;;;;;;;6.00;100.00;;;;;;5018959;28;19933;-72
2024/02/17 06:48:26;;;;;;;;;;;6.00;100.00;;;;;;5017367;28;19929;-73
2024/02/17 06:50:53;;;;;;;;;;;6.00;100.00;;;;;;5018831;28;19933;-72
2024/02/17 06:53:20;;;;;;;;;;;6.00;100.00;;;;;;5021884;28;20277;-73
2024/02/17 06:55:48;;;;;;;;;;;6.10;100.00;;;;;;5008824;28;19929;-73
2024/02/17 06:58:15;;;;;;;;;;;6.10;100.00;;;;;;5020069;28;19929;-72
2024/02/17 07:00:41;;;;;;;;;;;6.10;100.00;;;;;;5009079;28;19929;-74
2024/02/17 07:03:08;;;;;;;;;;;6.10;100.00;;;;;;5022128;28;19995;-73
2024/02/17 07:05:36;;;;;;;;;;;6.10;100.00;;;;;;5007654;28;20322;-73
2024/02/17 07:08:03;;;;;;;;;;;6.10;100.00;;;;;;5009838;28;19964;-72
2024/02/17 07:10:30;;;;;;;;;;;6.10;100.00;;;;;;4999400;28;20020;-72
2024/02/17 07:12:57;;;;;;;;;;;6.10;100.00;;;;;;5023262;28;19929;-72
2024/02/17 07:15:23;;;;;;;;;;;6.10;100.00;;;;;;5008128;28;19929;-72
2024/02/17 07:17:50;;;;;;;;;;;6.10;100.00;;;;;;5027407;28;20425;-71
2024/02/17 07:20:17;;;;;;;;;;;6.10;100.00;;;;;;5026472;28;19935;-70
2024/02/17 07:22:45;;;;;;;;;;;6.10;100.00;;;;;;5006737;28;20727;-71
2024/02/17 07:25:12;;;;;;;;;;;6.10;100.00;;;;;;5009403;28;19937;-72
2024/02/17 07:27:39;;;;;;;;;;;6.10;100.00;;;;;;5011590;28;20015;-72
2024/02/17 07:30:06;;;;;;;;;;;6.10;100.00;;;;;;5019663;28;19925;-72
2024/02/17 07:32:33;;;;;;;;;;;6.10;100.00;;;;;;5020974;28;19929;-72
2024/02/17 07:35:00;;;;;;;;;;;6.10;100.00;;;;;;5012389;28;19929;-72
2024/02/17 07:37:27;;;;;;;;;;;6.10;100.00;;;;;;5033475;28;19956;-72
2024/02/17 07:39:53;;;;;;;;;;;6.10;100.00;;;;;;5014738;28;19929;-72
2024/02/17 07:42:20;;;;;;;;;;;6.10;100.00;;;;;;5023419;28;19929;-72
2024/02/17 07:44:47;;;;;;;;;;;6.10;100.00;;;;;;5025031;28;19934;-72
2024/02/17 07:47:17;;;;;;;;;;;6.10;100.00;;;;;;5009068;28;19929;-72
2024/02/17 07:49:44;;;;;;;;;;;6.10;100.00;;;;;;5026270;28;19933;-72
2024/02/17 07:52:11;;;;;;;;;;;6.10;100.00;;;;;;5023176;28;19933;-77
2024/02/17 07:54:38;;;;;;;;;;;6.00;100.00;;;;;;5007701;28;19991;-70
2024/02/17 07:57:04;;;;;;;;;;;6.10;100.00;;;;;;5024513;28;20016;-69
2024/02/17 07:59:31;;;;;;;;;;;6.10;100.00;;;;;;5026499;28;20404;-71
2024/02/17 08:01:58;;;;;;;;;;;6.10;100.00;;;;;;5002733;28;20024;-72
2024/02/17 08:04:25;;;;;;;;;;;6.10;100.00;;;;;;5006768;28;19952;-71
2024/02/17 08:06:53;;;;;;;;;;;6.10;100.00;;;;;;5014102;28;19979;-75
2024/02/17 08:09:20;;;;;;;;;;;6.10;100.00;;;;;;5016586;28;20047;-71
2024/02/17 08:11:54;;;;;;;;;;;6.10;100.00;;;;;;5021393;28;19929;-72
2024/02/17 08:14:21;;;;;;;;;;;6.20;100.00;;;;;;5036407;28;19933;-71
2024/02/17 08:16:48;;;;;;;;;;;6.20;100.00;;;;;;5021376;28;20142;-71
2024/02/17 08:19:14;;;;;;;;;;;6.20;100.00;;;;;;4995769;28;19930;-72
2024/02/17 08:21:41;;;;;;;;;;;6.20;100.00;;;;;;5008765;28;20040;-70
2024/02/17 08:24:08;;;;;;;;;;;6.20;100.00;;;;;;5000008;28;20553;-75
2024/02/17 08:26:35;;;;;;;;;;;6.30;100.00;;;;;;5014103;28;19935;-75
2024/02/17 08:29:01;;;;;;;;;;;6.30;100.00;;;;;;5003333;28;20614;-74
2024/02/17 08:31:28;;;;;;;;;;;6.20;100.00;;;;;;4997834;28;19929;-75
2024/02/17 08:33:55;;;;;;;;;;;6.20;100.00;;;;;;5005651;28;20374;-74
2024/02/17 08:36:22;;;;;;;;;;;6.30;100.00;;;;;;5024505;28;20011;-74
2024/02/17 08:38:48;;;;;;;;;;;6.30;100.00;;;;;;5024890;28;19933;-73
2024/02/17 08:41:19;;;;;;;;;;;6.30;100.00;;;;;;5009007;28;20091;-73
2024/02/17 08:43:47;;;;;;;;;;;6.30;100.00;;;;;;5024813;28;20275;-73
2024/02/17 08:46:14;;;;;;;;;;;6.40;100.00;;;;;;5015791;28;19929;-73
2024/02/17 08:48:41;;;;;;;;;;;6.40;100.00;;;;;;5013197;28;19968;-74
2024/02/17 08:51:08;;;;;;;;;;;6.40;100.00;;;;;;5010723;28;19937;-74
2024/02/17 08:53:35;;;;;;;;;;;6.40;100.00;;;;;;5012799;28;19929;-73
2024/02/17 08:56:02;;;;;;;;;;;6.40;100.00;;;;;;5009756;28;20044;-74
2024/02/17 08:58:29;;;;;;;;;;;6.40;100.00;;;;;;5010909;28;19965;-76
2024/02/17 09:00:57;;;;;;;;;;;6.50;100.00;;;;;;5016549;28;20484;-74
2024/02/17 09:03:24;;;;;;;;;;;6.40;100.00;;;;;;5016494;28;20562;-75
2024/02/17 09:05:51;;;;;;;;;;;6.50;100.00;;;;;;5007805;28;20024;-75
2024/02/17 09:08:18;;;;;;;;;;;6.50;100.00;;;;;;5023597;28;19983;-75
2024/02/17 09:10:44;;;;;;;;;;;6.50;100.00;;;;;;5025341;28;19975;-72
2024/02/17 09:13:11;;;;;;;;;;;6.50;100.00;;;;;;5021278;28;20054;-74
2024/02/17 09:15:38;;;;;;;;;;;6.60;100.00;;;;;;5011684;28;20274;-72
2024/02/17 09:18:05;;;;;;;;;;;6.50;100.00;;;;;;5010273;28;19933;-72
2024/02/17 09:20:32;;;;;;;;;;;6.50;100.00;;;;;;4998065;28;19935;-71
2024/02/17 09:22:58;;;;;;;;;;;6.50;100.00;;;;;;5021853;28;20386;-72
2024/02/17 09:25:25;;;;;;;;;;;6.60;100.00;;;;;;5024471;28;20644;-68
2024/02/17 09:27:52;;;;;;;;;;;6.60;100.00;;;;;;5006321;28;19929;-68
2024/02/17 09:30:19;;;;;;;;;;;6.70;100.00;;;;;;5005121;28;20008;-68
2024/02/17 09:32:45;;;;;;;;;;;6.70;100.00;;;;;;5008857;28;20000;-72
2024/02/17 09:35:12;;;;;;;;;;;6.70;100.00;;;;;;5014711;28;19930;-72
2024/02/17 09:37:43;;;;;;;;;;;6.70;100.00;;;;;;5006447;28;19930;-72
2024/02/17 09:40:12;;;;;;;;;;;6.60;100.00;;;;;;5005828;28;19965;-72
2024/02/17 09:42:38;;;;;;;;;;;6.70;100.00;;;;;;5026237;28;19986;-68
2024/02/17 09:45:06;;;;;;;;;;;6.70;100.00;;;;;;5024505;28;20447;-68
2024/02/17 09:47:33;;;;;;;;;;;6.70;100.00;;;;;;5016688;28;20043;-68
2024/02/17 09:50:00;;;;;;;;;;;6.70;100.00;;;;;;5015925;28;19929;-68
2024/02/17 09:52:27;;;;;;;;;;;6.70;100.00;;;;;;5022443;28;19964;-68
2024/02/17 09:54:54;;;;;;;;;;;6.80;100.00;;;;;;5015916;28;20546;-68
2024/02/17 09:57:21;;;;;;;;;;;6.70;100.00;;;;;;5018530;28;19960;-68
2024/02/17 09:59:48;;;;;;;;;;;6.70;100.00;;;;;;5001426;28;20028;-68
2024/02/17 10:02:15;;;;;;;;;;;6.60;100.00;;;;;;5016879;28;19972;-68
2024/02/17 10:04:52;;;;;;;;;;;6.50;100.00;;;;;;5006293;28;20356;-72
2024/02/17 10:07:19;;;;;;;;;;;6.60;100.00;;;;;;5005203;28;19940;-72
2024/02/17 10:09:46;;;;;;;;;;;6.50;100.00;;;;;;5005360;28;19929;-72
2024/02/17 10:12:13;;;;;;;;;;;6.60;100.00;;;;;;5019447;28;20533;-72
2024/02/17 10:14:40;;;;;;;;;;;6.60;100.00;;;;;;5004236;28;20458;-72
2024/02/17 10:17:08;;;;;;;;;;;6.50;100.00;;;;;;5013697;28;19983;-71
2024/02/17 10:19:34;;;;;;;;;;;6.40;100.00;;;;;;5009097;28;20010;-71
2024/02/17 10:22:01;;;;;;;;;;;6.40;100.00;;;;;;5002919;28;20032;-72
2024/02/17 10:24:28;;;;;;;;;;;6.50;100.00;;;;;;5010789;28;19929;-72
2024/02/17 10:26:55;;;;;;;;;;;6.50;100.00;;;;;;5000775;28;19929;-71
2024/02/17 10:29:22;;;;;;;;;;;6.60;100.00;;;;;;5003047;28;19934;-72
2024/02/17 10:31:49;;;;;;;;;;;6.70;100.00;;;;;;5001087;28;19953;-72
2024/02/17 10:34:16;;;;;;;;;;;6.70;100.00;;;;;;5011338;28;20008;-69
2024/02/17 10:36:43;;;;;;;;;;;6.80;100.00;;;;;;5003272;28;19929;-69
2024/02/17 10:39:13;;;;;;;;;;;6.80;100.00;;;;;;4996591;28;19980;-69
2024/02/17 10:41:39;;;;;;;;;;;6.70;100.00;;;;;;5000508;28;19933;-69
2024/02/17 10:44:06;;;;;;;;;;;6.80;100.00;;;;;;5000628;28;20035;-69
2024/02/17 10:46:36;;;;;;;;;;;6.80;100.00;;;;;;4998293;28;19933;-69
2024/02/17 10:49:26;;;;;;;;;;;6.80;100.00;;;;;;4999353;28;20160;-69
2024/02/17 10:51:57;;;;;;;;;;;6.80;100.00;;;;;;4997461;28;19929;-69
2024/02/17 10:54:32;;;;;;;;;;;6.70;100.00;;;;;;5000733;28;20484;-69
2024/02/17 10:57:02;;;;;;;;;;;6.70;100.00;;;;;;4999709;28;19929;-69
2024/02/17 10:59:29;;;;;;;;;;;6.80;100.00;;;;;;5003144;28;20272;-70
2024/02/17 11:01:59;;;;;;;;;;;6.70;100.00;;;;;;5001651;28;19930;-70
2024/02/17 11:04:26;;;;;;;;;;;6.80;100.00;;;;;;5000528;28;19976;-70
2024/02/17 11:06:55;;;;;;;;;;;6.80;100.00;;;;;;5001371;28;19929;-70
2024/02/17 11:09:23;;;;;;;;;;;6.80;100.00;;;;;;4986322;28;20012;-70
2024/02/17 11:11:50;;;;;;;;;;;6.90;100.00;;;;;;5016937;28;20461;-70
2024/02/17 11:14:35;;;;;;;;;;;6.90;100.00;;;;;;5000843;28;20609;-70
2024/02/17 11:17:02;;;;;;;;;;;7.00;100.00;;;;;;4999801;28;20400;-70
2024/02/17 11:19:29;;;;;;;;;;;7.10;100.00;;;;;;4987014;28;20048;-70
2024/02/17 11:22:08;;;;;;;;;;;7.20;100.00;;;;;;5004754;28;19929;-70
2024/02/17 11:24:36;;;;;;;;;;;7.20;100.00;;;;;;4999638;28;19929;-70
2024/02/17 11:27:05;;;;;;;;;;;7.10;100.00;;;;;;4999854;28;19933;-67
2024/02/17 11:29:33;;;;;;;;;;;7.00;100.00;;;;;;4997782;28;19934;-68
2024/02/17 11:32:00;;;;;;;;;;;7.00;100.00;;;;;;5000634;28;19969;-69
2024/02/17 11:34:27;;;;;;;;;;;7.00;100.00;;;;;;4987960;28;19972;-68
2024/02/17 11:36:56;;;;;;;;;;;7.10;100.00;;;;;;5003515;28;19934;-68
2024/02/17 11:39:24;;;;;;;;;;;7.10;100.00;;;;;;5008183;28;19964;-67
2024/02/17 11:41:51;;;;;;;;;;;7.10;100.00;;;;;;4988431;28;20377;-68
2024/02/17 11:44:17;;;;;;;;;;;7.10;100.00;;;;;;5005479;28;19991;-68
2024/02/17 11:46:47;;;;;;;;;;;7.10;100.00;;;;;;5002679;28;20347;-69
2024/02/17 11:49:16;;;;;;;;;;;7.00;100.00;;;;;;4990841;28;20018;-69
2024/02/17 11:51:45;;;;;;;;;;;7.00;100.00;;;;;;5002471;28;20617;-70
2024/02/17 11:54:14;;;;;;;;;;;7.10;100.00;;;;;;5005146;28;20036;-69
2024/02/17 11:56:42;;;;;;;;;;;7.10;100.00;;;;;;5009012;28;20028;-69
2024/02/17 11:59:10;;;;;;;;;;;7.10;100.00;;;;;;5005181;28;21252;-70
2024/02/17 12:01:37;;;;;;;;;;;7.00;100.00;;;;;;5016862;28;20424;-69
2024/02/17 12:04:04;;;;;;;;;;;6.90;100.00;;;;;;5001759;28;19940;-69
2024/02/17 12:06:31;;;;;;;;;;;6.80;100.00;;;;;;4999159;28;20275;-70
2024/02/17 12:08:58;;;;;;;;;;;6.90;100.00;;;;;;5000580;28;19936;-69
2024/02/17 12:11:26;;;;;;;;;;;6.80;100.00;;;;;;4998486;28;19929;-69
2024/02/17 12:13:53;;;;;;;;;;;6.70;100.00;;;;;;5003825;28;20028;-69
2024/02/17 12:16:20;;;;;;;;;;;6.70;100.00;;;;;;5006820;28;20346;-74
2024/02/17 12:18:47;;;;;;;;;;;6.60;100.00;;;;;;5004611;28;19979;-73
2024/02/17 12:21:14;;;;;;;;;;;6.80;100.00;;;;;;5006988;28;19980;-74
2024/02/17 12:23:42;;;;;;;;;;;6.70;100.00;;;;;;4992085;28;19933;-74
2024/02/17 12:26:11;;;;;;;;;;;6.70;100.00;;;;;;4999337;28;19929;-73
2024/02/17 12:28:54;;;;;;;;;;;6.70;100.00;;;;;;5003681;28;19939;-72
2024/02/17 12:31:22;;;;;;;;;;;6.60;100.00;;;;;;4994016;28;19980;-73
2024/02/17 12:33:50;;;;;;;;;;;6.50;100.00;;;;;;5002251;28;19961;-73
2024/02/17 12:36:21;;;;;;;;;;;6.60;100.00;;;;;;5006079;28;20008;-73
2024/02/17 12:38:55;;;;;;;;;;;6.60;100.00;;;;;;5001799;28;19929;-73
2024/02/17 12:41:21;;;;;;;;;;;6.70;100.00;;;;;;4999300;28;19929;-73
2024/02/17 12:43:48;;;;;;;;;;;6.70;100.00;;;;;;5001240;28;19930;-72
2024/02/17 12:46:22;;;;;;;;;;;6.80;100.00;;;;;;5004409;28;20374;-73
2024/02/17 12:48:51;;;;;;;;;;;6.80;100.00;;;;;;5003499;28;19945;-73
2024/02/17 12:51:23;;;;;;;;;;;6.70;100.00;;;;;;5005560;28;19929;-73
2024/02/17 12:53:50;;;;;;;;;;;6.80;100.00;;;;;;5006099;28;19930;-73
2024/02/17 12:56:17;;;;;;;;;;;6.90;100.00;;;;;;5005150;28;19926;-73
2024/02/17 12:58:47;;;;;;;;;;;6.90;100.00;;;;;;5006916;28;19929;-73
2024/02/17 13:01:14;;;;;;;;;;;6.80;100.00;;;;;;5005968;28;19933;-74
2024/02/17 13:03:43;;;;;;;;;;;6.90;100.00;;;;;;5006808;28;20664;-72
2024/02/17 13:06:10;;;;;;;;;;;6.80;100.00;;;;;;5003916;28;20574;-73
2024/02/17 13:08:36;;;;;;;;;;;6.80;100.00;;;;;;5010007;28;19973;-73
2024/02/17 13:11:03;;;;;;;;;;;6.80;100.00;;;;;;5024886;28;19937;-73
2024/02/17 13:13:32;;;;;;;;;;;6.80;100.00;;;;;;5007923;28;20384;-71
2024/02/17 13:16:00;;;;;;;;;;;6.80;100.00;;;;;;5006208;28;19930;-71
2024/02/17 13:18:27;;;;;;;;;;;6.70;100.00;;;;;;5006316;28;19929;-68
2024/02/17 13:20:54;;;;;;;;;;;6.70;100.00;;;;;;5006494;28;19929;-68
2024/02/17 13:23:21;;;;;;;;;;;6.70;100.00;;;;;;5005163;28;19925;-67
2024/02/17 13:25:49;;;;;;;;;;;6.70;100.00;;;;;;5007089;28;19933;-67
2024/02/17 13:28:16;;;;;;;;;;;6.70;100.00;;;;;;5005790;28;19936;-67
2024/02/17 13:30:45;;;;;;;;;;;6.70;100.00;;;;;;4988833;28;19949;-67
2024/02/17 13:33:13;;;;;;;;;;;6.70;100.00;;;;;;5005999;28;20036;-67
2024/02/17 13:35:42;;;;;;;;;;;6.70;100.00;;;;;;5006122;28;20441;-67
2024/02/17 13:38:10;;;;;;;;;;;6.90;100.00;;;;;;5004538;28;19929;-67
2024/02/17 13:40:51;;;;;;;;;;;6.90;100.00;;;;;;5006413;28;19933;-67
2024/02/17 13:43:19;;;;;;;;;;;6.80;100.00;;;;;;5006150;28;19933;-72
2024/02/17 13:45:47;;;;;;;;;;;6.80;100.00;;;;;;4987678;28;19929;-70
2024/02/17 13:48:14;;;;;;;;;;;6.80;100.00;;;;;;5006039;28;19933;-70
2024/02/17 13:50:41;;;;;;;;;;;6.90;100.00;;;;;;5005215;28;19941;-70
2024/02/17 13:53:08;;;;;;;;;;;6.80;100.00;;;;;;5004865;28;19930;-70
2024/02/17 13:55:34;;;;;;;;;;;6.90;100.00;;;;;;5005143;28;19992;-70
2024/02/17 13:58:04;;;;;;;;;;;6.80;100.00;;;;;;5005762;28;19941;-69
2024/02/17 14:00:30;;;;;;;;;;;6.90;100.00;;;;;;5003462;28;20027;-70
2024/02/17 14:03:00;;;;;;;;;;;6.90;100.00;;;;;;5002988;28;20023;-70
2024/02/17 14:05:26;;;;;;;;;;;6.90;100.00;;;;;;5005722;28;19929;-70
2024/02/17 14:07:53;;;;;;;;;;;6.90;100.00;;;;;;5005587;28;20321;-70
2024/02/17 14:10:20;;;;;;;;;;;7.00;100.00;;;;;;5005366;28;19937;-69
2024/02/17 14:12:47;;;;;;;;;;;7.00;100.00;;;;;;5004441;28;20011;-70
2024/02/17 14:15:14;;;;;;;;;;;7.10;100.00;;;;;;5005534;28;20317;-70
2024/02/17 14:17:41;;;;;;;;;;;7.00;100.00;;;;;;5005640;28;20647;-70
2024/02/17 14:20:09;;;;;;;;;;;7.00;100.00;;;;;;5005379;28;20694;-70